Time;durP1;ratioP1;P1;durP2;ratioP2;P2;SDS_P1;SDS_P2;PMS_P1;PMS_P2;Temp;Humidity;BMP_temperature;BMP_pressure;BME280_temperature;BME280_humidity;BME280_pressure;Samples;Min_cycle;Max_cycle;Signal;HPM_P1;HPM_P2
2023/08/03 00:00:52;;;;;;;1.97;1.77;;;19.00;99.90;18.50;98403;;;;566698;250;24127;-78
2023/08/03 00:03:20;;;;;;;2.67;1.63;;;19.00;99.90;18.40;98412;;;;564554;252;24080;-83
2023/08/03 00:05:49;;;;;;;1.43;1.43;;;18.90;99.90;18.30;98418;;;;564203;250;24092;-79
2023/08/03 00:08:17;;;;;;;2.90;1.57;;;18.80;99.90;18.30;98407;;;;564141;250;24187;-83
2023/08/03 00:10:45;;;;;;;2.07;1.80;;;18.80;99.90;18.30;98413;;;;563687;250;24109;-78
2023/08/03 00:13:13;;;;;;;1.70;1.60;;;18.80;99.90;18.30;98402;;;;563422;250;24094;-80
2023/08/03 00:15:41;;;;;;;4.07;1.73;;;18.80;99.90;18.30;98400;;;;563683;250;24091;-79
2023/08/03 00:18:09;;;;;;;6.17;1.90;;;18.80;99.90;18.30;98391;;;;563165;250;24068;-79
2023/08/03 00:20:38;;;;;;;3.43;1.53;;;18.80;99.90;18.30;98395;;;;563048;252;24099;-79
2023/08/03 00:23:06;;;;;;;2.40;1.60;;;18.80;99.90;18.20;98388;;;;563891;250;24127;-81
2023/08/03 00:25:34;;;;;;;2.33;1.60;;;18.70;99.90;18.10;98385;;;;563481;250;24119;-80
2023/08/03 00:28:02;;;;;;;4.87;1.63;;;18.60;99.90;18.00;98381;;;;563702;250;24081;-79
2023/08/03 00:30:30;;;;;;;1.53;1.43;;;18.50;99.90;17.90;98365;;;;562778;251;24099;-79
2023/08/03 00:32:58;;;;;;;2.90;1.60;;;18.40;99.90;17.80;98372;;;;563260;251;24083;-80
2023/08/03 00:35:29;;;;;;;2.20;1.70;;;18.40;99.90;17.70;98369;;;;571820;250;24121;-81
2023/08/03 00:37:57;;;;;;;1.53;1.47;;;18.30;99.90;17.70;98360;;;;572029;250;24105;-80
2023/08/03 00:40:29;;;;;;;1.83;1.73;;;18.10;99.90;17.60;98366;;;;563864;250;24076;-79
2023/08/03 00:42:55;;;;;;;1.80;1.70;;;18.10;99.90;17.50;98366;;;;565504;250;24136;-79
2023/08/03 00:45:23;;;;;;;2.47;2.23;;;18.00;99.90;17.50;98363;;;;564396;252;24171;-80
2023/08/03 00:47:52;;;;;;;3.30;2.03;;;18.00;99.90;17.40;98356;;;;564599;252;24072;-79
2023/08/03 00:50:19;;;;;;;3.60;1.83;;;17.90;99.90;17.40;98366;;;;564353;249;24074;-79
2023/08/03 00:52:47;;;;;;;3.03;1.70;;;17.90;99.90;17.30;98366;;;;564703;252;24086;-79
2023/08/03 00:55:15;;;;;;;3.93;1.77;;;17.80;99.90;17.30;98360;;;;564158;252;24103;-80
2023/08/03 00:57:44;;;;;;;1.80;1.70;;;17.80;99.90;17.20;98353;;;;563716;250;24091;-79
2023/08/03 01:00:16;;;;;;;3.20;2.07;;;17.70;99.90;17.20;98352;;;;564241;250;24103;-79
2023/08/03 01:02:40;;;;;;;4.17;2.00;;;17.70;99.90;17.20;98347;;;;566395;250;24097;-79
2023/08/03 01:05:08;;;;;;;2.20;2.07;;;17.70;99.90;17.20;98348;;;;563702;249;24123;-78
2023/08/03 01:07:36;;;;;;;3.10;2.00;;;17.70;99.90;17.10;98344;;;;563705;249;24085;-79
2023/08/03 01:10:07;;;;;;;8.53;2.03;;;17.70;99.90;17.10;98335;;;;563695;250;24149;-78
2023/08/03 01:12:31;;;;;;;2.27;2.13;;;17.70;99.90;17.10;98328;;;;571825;249;24075;-78
2023/08/03 01:14:59;;;;;;;4.67;2.27;;;17.60;99.90;17.10;98328;;;;568805;252;24114;-79
2023/08/03 01:17:31;;;;;;;3.07;2.40;;;17.60;99.90;17.10;98330;;;;562589;250;24131;-79
2023/08/03 01:19:57;;;;;;;1.87;1.77;;;17.60;99.90;17.10;98328;;;;563213;250;24131;-80
2023/08/03 01:22:27;;;;;;;2.70;1.77;;;17.60;99.90;17.10;98329;;;;563170;251;24098;-80
2023/08/03 01:24:59;;;;;;;2.10;2.00;;;17.60;99.90;17.20;98318;;;;563250;250;24105;-78
2023/08/03 01:27:23;;;;;;;1.27;1.17;;;17.70;99.90;17.20;98314;;;;562806;251;23113;-78
2023/08/03 01:29:54;;;;;;;4.40;1.87;;;17.70;99.90;17.20;98331;;;;563704;250;24095;-80
2023/08/03 01:32:19;;;;;;;2.10;2.00;;;17.70;99.90;17.20;98327;;;;559086;252;24104;-80
2023/08/03 01:34:47;;;;;;;2.30;2.00;;;17.70;99.90;17.20;98324;;;;562945;252;24251;-82
2023/08/03 01:37:18;;;;;;;2.10;1.87;;;17.70;99.90;17.30;98315;;;;563735;250;24108;-80
2023/08/03 01:39:49;;;;;;;4.60;2.07;;;17.80;99.90;17.30;98318;;;;564122;252;24090;-84
2023/08/03 01:42:16;;;;;;;2.43;2.10;;;17.80;99.90;17.30;98315;;;;563339;250;24096;-80
2023/08/03 01:44:44;;;;;;;4.67;2.17;;;17.80;99.90;17.30;98313;;;;564213;250;24074;-79
2023/08/03 01:47:12;;;;;;;3.97;1.93;;;17.80;99.90;17.30;98308;;;;564073;250;24145;-78
2023/08/03 01:49:40;;;;;;;3.03;1.77;;;17.80;99.90;17.40;98298;;;;564449;250;24087;-79
2023/08/03 01:52:08;;;;;;;2.13;1.97;;;17.80;99.90;17.40;98288;;;;564423;250;24165;-79
2023/08/03 01:54:36;;;;;;;3.90;1.97;;;17.90;99.90;17.40;98294;;;;573201;249;24099;-80
2023/08/03 01:57:04;;;;;;;3.20;1.67;;;17.90;99.90;17.30;98296;;;;564397;250;24126;-77
2023/08/03 01:59:32;;;;;;;4.25;2.45;;;17.90;99.90;17.40;98300;;;;569451;247;35298;-78
2023/08/03 02:02:00;;;;;;;2.07;1.93;;;17.90;99.90;17.40;98307;;;;565649;250;24153;-77
2023/08/03 02:04:28;;;;;;;3.73;2.07;;;17.90;99.90;17.30;98313;;;;565516;250;24126;-78
2023/08/03 02:07:00;;;;;;;3.97;1.87;;;17.90;99.90;17.30;98307;;;;565556;250;24085;-77
2023/08/03 02:09:25;;;;;;;3.07;2.00;;;17.80;99.90;17.30;98311;;;;564676;250;24147;-79
2023/08/03 02:11:56;;;;;;;2.23;1.83;;;17.80;99.90;17.30;98310;;;;565145;250;24090;-78
2023/08/03 02:14:21;;;;;;;3.77;2.23;;;17.80;99.90;17.30;98311;;;;571205;248;24096;-83
2023/08/03 02:16:50;;;;;;;3.70;2.10;;;17.90;99.90;17.40;98322;;;;565274;249;24113;-81
2023/08/03 02:19:18;;;;;;;3.10;1.90;;;18.00;99.90;17.50;98320;;;;564844;250;24114;-88
2023/08/03 02:21:46;;;;;;;2.47;1.83;;;18.00;99.90;17.50;98317;;;;564652;250;24118;-86
2023/08/03 02:24:14;;;;;;;2.20;2.00;;;18.00;99.90;17.50;98317;;;;564941;250;24133;-80
2023/08/03 02:26:42;;;;;;;2.00;1.90;;;18.00;99.90;17.50;98314;;;;565322;250;24187;-88
2023/08/03 02:29:11;;;;;;;3.90;1.90;;;18.00;99.90;17.50;98318;;;;565194;250;24081;-87
2023/08/03 02:31:38;;;;;;;2.27;1.87;;;18.00;99.90;17.50;98309;;;;573456;249;24127;-80
2023/08/03 02:34:06;;;;;;;3.37;2.20;;;18.00;99.90;17.50;98316;;;;573468;245;24179;-81
2023/08/03 02:36:34;;;;;;;3.43;2.03;;;18.00;99.90;17.40;98303;;;;564815;250;24111;-80
2023/08/03 02:39:02;;;;;;;3.33;2.23;;;18.00;99.90;17.40;98300;;;;564792;250;24089;-83
2023/08/03 02:41:33;;;;;;;2.40;1.80;;;17.90;99.90;17.30;98288;;;;564175;250;24106;-88
2023/08/03 02:43:58;;;;;;;3.50;2.00;;;17.80;99.90;17.20;98291;;;;564379;250;24084;-86
2023/08/03 02:46:26;;;;;;;3.07;1.93;;;17.80;99.90;17.20;98295;;;;564878;250;24110;-86
2023/08/03 02:48:54;;;;;;;4.90;1.80;;;17.70;99.90;17.20;98298;;;;564633;250;24070;-83
2023/08/03 02:51:22;;;;;;;2.40;2.20;;;17.70;99.90;17.10;98299;;;;564954;250;24086;-87
2023/08/03 02:53:50;;;;;;;3.63;1.77;;;17.70;99.90;17.10;98303;;;;573410;249;24131;-88
2023/08/03 02:56:18;;;;;;;4.17;2.40;;;17.70;99.90;17.10;98291;;;;564428;250;24128;-88
2023/08/03 02:58:45;;;;;;;3.43;2.27;;;17.60;99.90;17.10;98298;;;;564226;249;24111;-86
2023/08/03 03:01:13;;;;;;;5.00;2.50;;;17.60;99.90;17.10;98294;;;;564300;250;24106;-86
2023/08/03 03:03:41;;;;;;;3.10;2.07;;;17.70;99.90;17.10;98291;;;;564507;250;24135;-87
2023/08/03 03:06:09;;;;;;;2.23;2.10;;;17.60;99.90;17.10;98282;;;;564561;250;23181;-88
2023/08/03 03:08:37;;;;;;;2.03;1.93;;;17.70;99.90;17.20;98284;;;;564479;248;24075;-81
2023/08/03 03:11:06;;;;;;;2.50;2.30;;;17.70;99.90;17.20;98282;;;;565787;250;23142;-87
2023/08/03 03:13:35;;;;;;;2.37;2.17;;;17.80;99.90;17.30;98295;;;;565019;250;24155;-86
2023/08/03 03:16:03;;;;;;;4.33;2.20;;;17.80;99.90;17.40;98294;;;;564785;250;24084;-81
2023/08/03 03:18:31;;;;;;;6.90;1.83;;;17.90;99.90;17.50;98305;;;;564238;250;24091;-81
2023/08/03 03:20:58;;;;;;;2.27;2.00;;;18.00;99.90;17.50;98300;;;;564541;249;24087;-82
2023/08/03 03:23:29;;;;;;;2.07;1.90;;;18.00;99.90;17.60;98316;;;;564070;250;24083;-79
2023/08/03 03:25:54;;;;;;;2.43;1.90;;;18.10;99.90;17.70;98304;;;;572586;250;24127;-79
2023/08/03 03:28:22;;;;;;;2.27;2.07;;;18.20;99.90;17.70;98314;;;;564066;250;24141;-84
2023/08/03 03:30:50;;;;;;;2.80;1.70;;;18.30;99.90;17.80;98314;;;;564233;250;24119;-81
2023/08/03 03:33:19;;;;;;;2.17;1.97;;;18.30;99.90;17.80;98310;;;;564727;250;24183;-80
2023/08/03 03:35:49;;;;;;;2.13;2.00;;;18.40;99.90;17.90;98320;;;;564540;250;24107;-79
2023/08/03 03:38:17;;;;;;;2.53;1.90;;;18.40;99.90;17.90;98315;;;;564612;250;24107;-79
2023/08/03 03:40:45;;;;;;;2.70;2.40;;;18.50;99.90;18.00;98314;;;;564566;249;24110;-78
2023/08/03 03:43:13;;;;;;;2.00;1.77;;;18.60;99.90;18.10;98315;;;;563980;250;24092;-79
2023/08/03 03:45:41;;;;;;;3.93;2.20;;;18.60;99.90;18.10;98311;;;;563797;250;24119;-79
2023/08/03 03:48:11;;;;;;;3.10;2.13;;;18.60;99.90;18.10;98314;;;;563692;250;23111;-79
2023/08/03 03:50:39;;;;;;;2.53;2.30;;;18.70;99.90;18.10;98323;;;;563708;250;24133;-81
2023/08/03 03:53:07;;;;;;;3.73;2.10;;;18.60;99.90;18.10;98315;;;;564045;250;24186;-80
2023/08/03 03:55:35;;;;;;;2.00;1.90;;;18.70;99.90;18.20;98313;;;;563229;252;24095;-80
2023/08/03 03:58:03;;;;;;;2.40;2.17;;;18.70;99.90;18.20;98307;;;;563352;250;23161;-78
2023/08/03 04:00:37;;;;;;;6.27;2.20;;;18.80;99.90;18.20;98309;;;;563441;252;24122;-80
2023/08/03 04:03:00;;;;;;;2.07;1.97;;;18.80;99.90;18.20;98316;;;;571611;250;24134;-79
2023/08/03 04:05:29;;;;;;;2.83;2.10;;;18.80;99.90;18.20;98307;;;;563945;252;23106;-80
2023/08/03 04:07:56;;;;;;;2.67;2.17;;;18.80;99.90;18.30;98305;;;;563401;250;24120;-78
2023/08/03 04:10:24;;;;;;;4.30;2.20;;;18.80;99.90;18.30;98306;;;;563598;252;24101;-79
2023/08/03 04:12:52;;;;;;;2.37;2.17;;;18.90;99.90;18.30;98310;;;;563059;252;24094;-79
2023/08/03 04:15:20;;;;;;;2.40;2.20;;;18.90;99.90;18.40;98298;;;;563569;251;24094;-78
2023/08/03 04:17:51;;;;;;;4.87;2.00;;;18.90;99.90;18.40;98300;;;;563272;249;24078;-79
2023/08/03 04:20:16;;;;;;;3.07;2.03;;;18.90;99.90;18.40;98302;;;;562425;252;24096;-79
2023/08/03 04:22:45;;;;;;;2.40;2.20;;;18.90;99.90;18.50;98303;;;;564374;252;24094;-79
2023/08/03 04:25:13;;;;;;;2.63;2.27;;;19.00;99.90;18.50;98306;;;;559908;249;24105;-81
2023/08/03 04:27:41;;;;;;;2.23;2.13;;;19.10;99.90;18.60;98311;;;;563707;249;24129;-81
2023/08/03 04:30:13;;;;;;;2.40;2.13;;;19.10;99.90;18.70;98315;;;;563478;251;24130;-80
2023/08/03 04:32:37;;;;;;;2.50;2.30;;;19.20;99.90;19.00;98319;;;;563059;251;24112;-82
2023/08/03 04:35:05;;;;;;;6.10;2.27;;;19.50;99.90;19.30;98325;;;;563804;250;24134;-81
2023/08/03 04:37:34;;;;;;;4.27;1.90;;;19.80;99.90;19.70;98332;;;;563667;250;24081;-78
2023/08/03 04:40:06;;;;;;;3.73;2.30;;;20.50;99.90;20.00;98334;;;;563331;250;24163;-78
2023/08/03 04:42:32;;;;;;;2.87;2.30;;;20.40;99.90;20.20;98340;;;;562620;250;24143;-78
2023/08/03 04:45:00;;;;;;;5.47;2.03;;;20.70;99.90;21.40;98335;;;;563127;252;24080;-80
2023/08/03 04:47:27;;;;;;;7.40;2.50;;;21.80;99.90;23.00;98339;;;;563033;252;24101;-80
2023/08/03 04:49:55;;;;;;;3.10;1.90;;;23.50;99.90;24.10;98339;;;;563206;249;24076;-79
2023/08/03 04:52:23;;;;;;;2.43;2.23;;;24.60;99.90;24.80;98336;;;;563217;250;24157;-78
2023/08/03 04:54:54;;;;;;;2.47;2.23;;;25.50;99.90;24.70;98330;;;;563498;249;23148;-79
2023/08/03 04:57:22;;;;;;;2.47;2.37;;;25.40;99.90;24.30;98328;;;;572057;248;24151;-80
2023/08/03 04:59:51;;;;;;;10.07;2.23;;;24.70;99.90;23.90;98337;;;;563235;252;23125;-83
2023/08/03 05:02:20;;;;;;;4.30;2.50;;;24.70;99.90;23.60;98340;;;;563597;250;23123;-81
2023/08/03 05:04:48;;;;;;;4.43;2.00;;;24.30;99.90;23.20;98329;;;;563575;250;23160;-80
2023/08/03 05:07:17;;;;;;;8.97;1.80;;;23.60;99.90;22.90;98330;;;;562867;250;24085;-80
2023/08/03 05:09:46;;;;;;;2.03;1.93;;;23.50;99.90;22.60;98336;;;;563408;250;24123;-80
2023/08/03 05:12:14;;;;;;;2.67;2.03;;;23.20;99.90;22.30;98312;;;;563445;250;23120;-81
2023/08/03 05:14:42;;;;;;;2.03;1.90;;;22.90;99.90;22.00;98306;;;;563482;250;24162;-81
2023/08/03 05:17:10;;;;;;;2.20;2.10;;;22.60;99.90;21.80;98310;;;;563559;250;24088;-82
2023/08/03 05:19:38;;;;;;;2.17;2.07;;;22.40;99.90;21.60;98344;;;;563502;252;24092;-86
2023/08/03 05:22:05;;;;;;;2.43;2.23;;;22.20;99.90;21.60;98340;;;;563555;250;24149;-85
2023/08/03 05:24:33;;;;;;;2.20;2.10;;;22.10;99.90;21.60;98349;;;;572308;249;24138;-82
2023/08/03 05:27:06;;;;;;;3.13;2.13;;;22.00;99.90;21.50;98359;;;;563942;252;24119;-79
2023/08/03 05:29:34;;;;;;;1.93;1.83;;;22.00;99.90;21.40;98364;;;;562775;252;24084;-80
2023/08/03 05:31:58;;;;;;;2.10;1.67;;;21.90;99.90;21.40;98374;;;;563077;250;24084;-81
2023/08/03 05:34:26;;;;;;;2.70;1.70;;;21.90;99.90;21.30;98374;;;;564960;252;24074;-83
2023/08/03 05:36:54;;;;;;;2.67;1.93;;;21.80;99.90;21.20;98378;;;;564418;252;24078;-78
2023/08/03 05:39:22;;;;;;;2.20;2.00;;;21.70;99.90;21.10;98383;;;;564076;252;24125;-80
2023/08/03 05:41:49;;;;;;;3.47;2.20;;;21.60;99.90;21.10;98393;;;;563848;252;24097;-80
2023/08/03 05:44:17;;;;;;;1.67;1.57;;;21.60;99.90;21.00;98384;;;;563769;249;27379;-80
2023/08/03 05:46:45;;;;;;;3.37;2.08;;;21.50;99.90;20.90;98395;;;;561399;249;35305;-80
2023/08/03 05:49:14;;;;;;;2.10;1.80;;;21.30;99.90;20.70;98392;;;;566218;250;24098;-80
2023/08/03 05:51:43;;;;;;;3.10;2.40;;;21.00;99.90;20.50;98401;;;;566096;250;24124;-79
2023/08/03 05:54:12;;;;;;;2.57;2.33;;;21.00;99.90;20.30;98401;;;;566190;248;24125;-79
2023/08/03 05:56:40;;;;;;;2.00;1.90;;;20.80;99.90;20.10;98412;;;;564512;248;23169;-79
2023/08/03 05:59:08;;;;;;;10.07;2.33;;;20.40;99.90;19.90;98415;;;;563153;249;24118;-78
2023/08/03 06:01:37;;;;;;;5.07;2.20;;;20.40;99.90;19.90;98419;;;;562676;250;23119;-79
2023/08/03 06:04:06;;;;;;;2.37;2.17;;;20.40;99.90;20.00;98415;;;;565798;250;24084;-78
2023/08/03 06:06:34;;;;;;;4.33;2.80;;;20.50;99.90;20.20;98406;;;;560698;250;35299;-78
2023/08/03 06:09:03;;;;;;;3.93;2.20;;;20.90;99.90;20.50;98406;;;;564869;250;24166;-79
2023/08/03 06:11:31;;;;;;;4.90;2.30;;;21.40;99.90;21.00;98410;;;;552956;257;24160;-86
2023/08/03 06:13:59;;;;;;;3.47;2.47;;;21.30;99.90;21.60;98404;;;;567243;250;24091;-80
2023/08/03 06:16:27;;;;;;;2.63;1.67;;;22.00;99.90;22.20;98404;;;;564279;250;24084;-79
2023/08/03 06:18:59;;;;;;;2.67;1.97;;;23.10;99.90;22.70;98410;;;;563450;251;24162;-80
2023/08/03 06:21:25;;;;;;;3.33;2.30;;;23.00;99.90;23.10;98413;;;;563181;250;24151;-78
2023/08/03 06:23:56;;;;;;;2.13;1.90;;;23.50;99.90;23.60;98417;;;;563547;250;24103;-80
2023/08/03 06:26:22;;;;;;;2.10;2.00;;;24.00;99.90;24.00;98420;;;;563475;250;24100;-79
2023/08/03 06:28:50;;;;;;;6.40;2.67;;;24.70;99.90;24.20;98419;;;;563309;252;23107;-80
2023/08/03 06:31:18;;;;;;;2.20;1.80;;;24.70;99.90;24.40;98421;;;;563576;250;23109;-79
2023/08/03 06:33:47;;;;;;;2.63;2.00;;;24.90;99.90;24.40;98427;;;;563492;250;23115;-79
2023/08/03 06:36:28;;;;;;;1.97;1.87;;;24.90;99.90;24.50;98431;;;;564566;251;23145;-79
2023/08/03 06:38:53;;;;;;;1.67;1.57;;;25.00;99.90;25.00;98422;;;;564141;251;23191;-82
2023/08/03 06:41:21;;;;;;;3.33;1.87;;;25.40;99.90;26.30;98429;;;;564696;252;23118;-83
2023/08/03 06:43:48;;;;;;;2.63;2.43;;;26.40;99.90;28.70;98430;;;;564922;250;23079;-80
2023/08/03 06:46:20;;;;;;;1.80;1.70;;;28.70;99.90;31.50;98437;;;;574821;247;23065;-80
2023/08/03 06:48:45;;;;;;;4.75;1.85;;;31.40;99.90;34.20;98431;;;;565210;252;23231;-84
2023/08/03 06:51:15;;;;;;;1.77;1.67;;;34.10;99.90;36.50;98446;;;;574221;245;23116;-86
2023/08/03 06:53:46;;;;;;;1.70;1.60;;;36.40;92.70;38.10;98451;;;;565229;252;24134;-81
2023/08/03 06:56:12;;;;;;;3.00;1.75;;;38.20;79.90;37.60;98453;;;;564590;250;23100;-82
2023/08/03 06:58:40;;;;;;;2.25;2.10;;;38.30;72.70;36.00;98459;;;;564761;251;23194;-83
2023/08/03 07:01:08;;;;;;;3.95;1.80;;;37.30;71.20;34.70;98467;;;;564645;250;23112;-80
2023/08/03 07:03:36;;;;;;;4.12;2.12;;;36.00;72.90;34.80;98477;;;;564940;250;23111;-82
2023/08/03 07:06:04;;;;;;;15.05;3.03;;;35.50;73.20;33.90;98482;;;;566663;250;23146;-81
2023/08/03 07:08:31;;;;;;;1.67;1.58;;;34.80;73.80;32.50;98485;;;;567095;250;24136;-79
2023/08/03 07:10:59;;;;;;;3.35;1.90;;;33.50;75.10;31.20;98491;;;;565238;250;23225;-80
2023/08/03 07:13:27;;;;;;;1.67;1.65;;;32.30;77.90;30.30;98496;;;;564116;252;23109;-85
2023/08/03 07:15:55;;;;;;;2.45;1.62;;;31.30;81.30;29.50;98496;;;;563838;250;23117;-81
2023/08/03 07:18:23;;;;;;;5.28;1.67;;;30.30;83.70;28.50;98489;;;;563618;250;23148;-82
2023/08/03 07:20:51;;;;;;;4.25;1.37;;;29.40;85.20;27.60;98496;;;;563717;250;23161;-85
2023/08/03 07:23:19;;;;;;;2.75;1.37;;;28.40;88.60;26.90;98502;;;;562916;251;24144;-83
2023/08/03 07:25:47;;;;;;;3.00;1.62;;;27.00;92.40;26.30;98506;;;;562829;252;23119;-81
2023/08/03 07:28:15;;;;;;;2.40;1.47;;;26.90;92.30;26.00;98507;;;;563267;252;23133;-80
2023/08/03 07:30:43;;;;;;;1.40;1.30;;;26.50;93.60;25.90;98523;;;;562767;252;23160;-82
2023/08/03 07:33:12;;;;;;;6.80;1.70;;;26.30;95.00;26.00;98521;;;;562742;252;24137;-78
2023/08/03 07:35:40;;;;;;;3.70;1.83;;;26.30;95.80;26.30;98515;;;;562964;250;23120;-80
2023/08/03 07:38:08;;;;;;;1.60;1.13;;;26.50;96.10;26.70;98514;;;;564096;250;24114;-78
2023/08/03 07:40:36;;;;;;;1.90;1.50;;;27.00;96.50;27.00;98524;;;;563708;250;26261;-79
2023/08/03 07:43:04;;;;;;;5.33;1.40;;;27.20;96.10;27.00;98514;;;;550461;256;24200;-79
2023/08/03 07:45:32;;;;;;;4.83;1.53;;;27.30;96.00;27.20;98527;;;;569586;251;23199;-79
2023/08/03 07:48:00;;;;;;;3.40;1.60;;;27.50;96.50;27.80;98529;;;;562850;252;23104;-80
2023/08/03 07:50:28;;;;;;;2.17;1.80;;;28.00;96.20;28.10;98525;;;;562933;251;23132;-79
2023/08/03 07:52:56;;;;;;;2.60;1.50;;;28.40;95.70;28.00;98529;;;;563075;252;23124;-81
2023/08/03 07:55:23;;;;;;;3.95;1.95;;;28.40;94.80;27.60;98531;;;;563354;250;23102;-80
2023/08/03 07:57:51;;;;;;;4.35;1.33;;;28.10;94.80;27.40;98534;;;;564661;249;23119;-79
2023/08/03 08:00:23;;;;;;;1.30;1.30;;;27.90;95.50;27.30;98535;;;;563999;250;23110;-79
2023/08/03 08:02:47;;;;;;;1.87;1.77;;;27.70;95.90;27.30;98540;;;;563174;252;23155;-81
2023/08/03 08:05:15;;;;;;;1.90;1.80;;;27.70;96.40;27.40;98539;;;;563764;252;23099;-80
2023/08/03 08:07:44;;;;;;;4.80;1.63;;;27.80;96.80;27.40;98545;;;;563998;252;25193;-83
2023/08/03 08:10:16;;;;;;;1.50;1.40;;;27.80;96.80;27.80;98540;;;;564217;250;24165;-79
2023/08/03 08:12:42;;;;;;;1.70;1.60;;;28.80;95.70;28.70;98548;;;;574011;249;24080;-80
2023/08/03 08:15:10;;;;;;;1.35;1.30;;;28.80;95.70;29.50;98540;;;;563337;250;24175;-79
2023/08/03 08:17:40;;;;;;;1.48;1.20;;;29.60;94.50;30.70;98550;;;;571873;248;23105;-79
2023/08/03 08:20:08;;;;;;;1.60;1.50;;;30.80;92.10;31.70;98541;;;;571714;251;23108;-80
2023/08/03 08:22:37;;;;;;;2.65;1.70;;;31.80;88.30;33.50;98547;;;;563455;252;23121;-82
2023/08/03 08:25:06;;;;;;;2.97;1.33;;;33.40;84.20;35.60;98548;;;;563189;252;23082;-84
2023/08/03 08:27:36;;;;;;;2.33;1.37;;;37.50;69.10;37.50;98542;;;;566862;249;35260;-80
2023/08/03 08:30:06;;;;;;;1.65;1.23;;;37.30;68.80;38.10;98535;;;;572003;245;23120;-83
2023/08/03 08:32:34;;;;;;;3.33;1.58;;;38.30;64.40;38.20;98531;;;;563688;250;23097;-81
2023/08/03 08:35:02;;;;;;;1.52;1.17;;;38.60;60.20;39.40;98534;;;;565714;250;23088;-81
2023/08/03 08:37:29;;;;;;;6.22;1.27;;;39.50;58.40;40.50;98535;;;;566068;250;23128;-81
2023/08/03 08:39:57;;;;;;;1.40;1.30;;;40.70;55.90;41.90;98545;;;;563960;249;23117;-83
2023/08/03 08:42:26;;;;;;;1.00;0.90;;;41.90;53.70;42.90;98541;;;;564278;250;23154;-81
2023/08/03 08:44:55;;;;;;;1.42;1.33;;;43.00;51.30;42.90;98542;;;;564543;250;23115;-85
2023/08/03 08:47:26;;;;;;;6.05;1.48;;;43.50;49.40;42.20;98555;;;;565380;250;23136;-81
2023/08/03 08:49:54;;;;;;;2.60;1.30;;;43.10;48.70;41.50;98563;;;;564753;250;23158;-82
2023/08/03 08:52:23;;;;;;;2.37;1.30;;;42.40;48.40;42.20;98556;;;;557913;250;35249;-79
2023/08/03 08:54:52;;;;;;;5.82;1.20;;;43.60;48.50;43.50;98561;;;;563206;250;23096;-81
2023/08/03 08:57:23;;;;;;;4.85;1.52;;;43.60;48.40;44.80;98567;;;;552744;253;23142;-80
2023/08/03 09:00:01;;;;;;;1.00;1.00;;;45.00;46.00;45.70;98565;;;;561625;248;23164;-81
2023/08/03 09:02:29;;;;;;;1.27;1.27;;;46.00;44.90;46.60;98577;;;;568016;249;23124;-80
2023/08/03 09:05:00;;;;;;;2.47;1.00;;;47.10;42.40;46.20;98573;;;;568236;248;23154;-79
2023/08/03 09:07:25;;;;;;;1.92;1.00;;;47.10;42.30;44.40;98582;;;;568642;248;23105;-82
2023/08/03 09:09:53;;;;;;;2.37;1.15;;;46.00;42.20;41.80;98585;;;;567063;250;23168;-81
2023/08/03 09:12:25;;;;;;;3.58;0.88;;;44.00;43.60;39.80;98591;;;;563900;249;23154;-81
2023/08/03 09:14:55;;;;;;;1.48;1.23;;;41.80;45.40;38.00;98586;;;;573209;244;23127;-83
2023/08/03 09:17:23;;;;;;;0.95;0.95;;;39.70;47.50;36.60;98593;;;;564815;248;23139;-83
2023/08/03 09:19:48;;;;;;;1.33;1.10;;;38.00;49.90;35.20;98597;;;;563825;249;23170;-80
2023/08/03 09:22:19;;;;;;;3.87;2.00;;;36.40;52.20;33.90;98601;;;;572567;250;23100;-80
2023/08/03 09:24:47;;;;;;;4.87;2.17;;;34.80;54.70;32.80;98600;;;;563324;252;23215;-80
2023/08/03 09:27:18;;;;;;;6.43;2.08;;;33.60;57.80;31.80;98604;;;;562271;250;23100;-79
2023/08/03 09:29:47;;;;;;;3.03;2.00;;;32.40;61.00;32.00;98613;;;;564347;252;23088;-78
2023/08/03 09:32:17;;;;;;;3.67;1.58;;;32.20;64.20;33.30;98621;;;;564299;250;23189;-79
2023/08/03 09:34:47;;;;;;;5.32;1.75;;;33.20;62.80;33.90;98622;;;;564555;250;23242;-85
2023/08/03 09:37:16;;;;;;;7.68;1.75;;;34.00;61.30;35.40;98624;;;;563251;252;23146;-80
2023/08/03 09:39:40;;;;;;;1.30;1.20;;;35.40;59.60;37.10;98627;;;;559546;252;23113;-79
2023/08/03 09:42:12;;;;;;;4.57;1.15;;;39.00;54.60;39.00;98629;;;;562335;250;24167;-82
2023/08/03 09:44:38;;;;;;;2.10;1.08;;;38.90;54.50;41.00;98622;;;;565178;250;23125;-83
2023/08/03 09:47:09;;;;;;;2.92;1.27;;;41.10;51.80;42.90;98614;;;;565120;252;23167;-85
2023/08/03 09:49:33;;;;;;;1.95;1.48;;;43.20;48.80;43.90;98614;;;;566256;252;23113;-82
2023/08/03 09:52:00;;;;;;;8.25;2.20;;;44.70;46.20;43.40;98604;;;;563216;252;23140;-80
2023/08/03 09:54:28;;;;;;;11.57;1.42;;;44.70;45.70;42.70;98615;;;;562879;252;23125;-82
2023/08/03 09:56:59;;;;;;;10.32;1.87;;;44.10;45.70;42.70;98617;;;;562201;252;23115;-82
2023/08/03 09:59:28;;;;;;;3.15;1.30;;;43.90;46.80;42.50;98618;;;;562982;252;23124;-81
2023/08/03 10:01:55;;;;;;;6.57;1.62;;;43.70;46.30;41.20;98618;;;;563191;252;23187;-81
2023/08/03 10:04:27;;;;;;;6.53;1.80;;;42.70;47.00;40.00;98618;;;;563243;251;23102;-81
2023/08/03 10:06:52;;;;;;;7.47;2.62;;;41.50;48.50;39.60;98623;;;;563101;252;23109;-81
2023/08/03 10:09:20;;;;;;;1.92;1.00;;;41.10;48.90;40.20;98624;;;;563193;252;23179;-81
2023/08/03 10:11:55;;;;;;;7.75;1.33;;;41.10;48.90;40.60;98611;;;;563627;250;23126;-83
2023/08/03 10:14:23;;;;;;;6.28;1.20;;;41.70;47.20;40.60;98615;;;;565723;250;23102;-81
2023/08/03 10:16:54;;;;;;;6.97;2.72;;;41.70;47.20;39.30;98612;;;;564248;252;24129;-84
2023/08/03 10:19:24;;;;;;;9.20;2.90;;;40.70;47.50;37.50;98619;;;;563358;250;23140;-80
2023/08/03 10:21:52;;;;;;;6.20;3.85;;;39.20;48.90;35.80;98619;;;;561358;252;38787;-79
2023/08/03 10:24:18;;;;;;;3.85;2.03;;;36.80;52.70;35.90;98614;;;;567086;248;35259;-80
2023/08/03 10:26:54;;;;;;;3.22;1.30;;;36.90;52.90;36.10;98612;;;;564177;250;23096;-80
2023/08/03 10:29:51;;;;;;;3.97;1.17;;;36.90;52.90;35.90;98613;;;;564664;248;23125;-80
2023/08/03 10:32:19;;;;;;;4.22;1.52;;;36.70;53.50;36.10;98600;;;;560267;250;23101;-79
2023/08/03 10:34:47;;;;;;;3.53;1.67;;;36.80;53.90;36.00;98603;;;;564959;251;23122;-81
2023/08/03 10:37:16;;;;;;;11.05;1.42;;;36.80;54.10;36.50;98597;;;;563500;250;23123;-79
2023/08/03 10:39:56;;;;;;;1.52;1.30;;;37.20;54.10;36.90;98587;;;;563647;250;23121;-79
2023/08/03 10:42:34;;;;;;;4.55;1.58;;;38.10;52.70;37.10;98587;;;;563771;251;23092;-80
2023/08/03 10:45:22;;;;;;;4.25;1.25;;;38.00;52.60;37.00;98584;;;;572082;250;23095;-81
2023/08/03 10:47:50;;;;;;;2.62;1.05;;;38.00;52.30;36.70;98584;;;;572637;248;23108;-81
2023/08/03 10:50:21;;;;;;;5.68;1.73;;;37.60;52.00;35.80;98583;;;;563669;247;23127;-80
2023/08/03 10:52:46;;;;;;;12.20;2.00;;;36.60;52.40;34.90;98585;;;;563352;252;23278;-83
2023/08/03 10:55:24;;;;;;;3.25;1.15;;;35.50;53.40;34.10;98580;;;;558652;252;35361;-80
2023/08/03 10:57:51;;;;;;;1.23;0.82;;;34.60;55.00;33.20;98577;;;;568305;250;24193;-85
2023/08/03 11:00:18;;;;;;;5.07;1.55;;;33.70;56.20;32.30;98571;;;;582144;245;23095;-79
2023/08/03 11:02:46;;;;;;;3.50;1.30;;;32.80;57.40;31.50;98572;;;;582693;242;23088;-83
2023/08/03 11:05:15;;;;;;;4.12;1.12;;;31.40;59.60;31.20;98571;;;;582711;243;23086;-80
2023/08/03 11:07:43;;;;;;;4.18;1.15;;;31.40;59.60;31.00;98579;;;;582496;243;23081;-81
2023/08/03 11:10:11;;;;;;;4.90;1.33;;;31.20;60.80;30.90;98576;;;;580262;243;23078;-80
2023/08/03 11:12:46;;;;;;;4.12;1.40;;;31.10;61.90;30.80;98573;;;;591937;243;23061;-80
2023/08/03 11:15:09;;;;;;;9.20;2.20;;;31.10;62.20;30.50;98571;;;;580034;243;23068;-80
2023/08/03 11:17:37;;;;;;;5.05;1.30;;;30.80;63.30;30.10;98570;;;;582520;243;23066;-81
2023/08/03 11:20:08;;;;;;;4.72;1.23;;;30.40;62.80;29.90;98564;;;;591903;243;24295;-80
2023/08/03 11:22:34;;;;;;;3.08;1.17;;;30.20;64.20;29.70;98569;;;;580784;243;23079;-81